11:55
Airports
Links
Donate
Help keep this website running!
PayPal
Bitcoin
METAR
PHNG 211057Z 04011KT 7SM SCT042 OVC055 23/16 A2992 RMK AO2 SLP125 T02330161 $
Current Weather Conditions at PHNG
VFR 10:57:00 21-11-17
Automated station
Altimeter:29.92 hg
Temp:23.3°c 73°f
Dew point:16.1°c 61°f
Wind:11 knots, 12.7 mph, 6 m/s, from 40°
Visibility:7.0 statute miles
5500(OVC) Overcast
4200(SCT) Scattered
Past METAR reports
VFR 09:57:00 21-11-17
Automated station, no observer
Altimeter:29.92 hg
Temp:23.3°c 73°f
Dew point:15.6°c 59°f
Wind:9 knots, 10.4 mph, 5 m/s, from 30°
Visibility:10.0 statute miles
6000(OVC) Overcast
5000(FEW) A few
3800(FEW) A few
PHNG 210957Z AUTO 03009KT 10SM FEW038 FEW050 OVC060 23/16 A2992 RMK AO2 SLP128 T02330156 402670200 $
VFR 08:57:00 21-11-17
Altimeter:29.93 hg
Temp:23.3°c 73°f
Dew point:16.1°c 61°f
Wind:14 knots, 16.1 mph, 7 m/s, from 20°
Visibility:6.0 statute miles
6000(OVC) Overcast
4600(SCT) Scattered
3800(FEW) A few
PHNG 210857Z COR 02014KT 6SM -RA FEW038 SCT046 OVC060 23/16 A2993 RMK RAB00E10 SLP130 P0000 60002 T02330161 51006
VFR 07:57:00 21-11-17
Automated station
Altimeter:29.93 hg
Temp:22.8°c 72°f
Dew point:16.7°c 61°f
Wind:13 knots, 15 mph, 7 m/s, from 40°
Visibility:6.0 statute miles
5500(OVC) Overcast
4400(SCT) Scattered
PHNG 210757Z COR 04013KT 6SM -RA SCT044 OVC055 23/17 A2993 RMK AO2 RAB01E31 SLP129 P0002 T02280167
VFR 06:57:00 21-11-17
Automated station
Altimeter:29.92 hg
Temp:23.3°c 73°f
Dew point:17.2°c 63°f
Wind:17 knots, 19.6 mph, 9 m/s, from 10°
Visibility:6.0 statute miles
6500(OVC) Overcast
5000(SCT) Scattered
3500(SCT) Scattered
PHNG 210657Z COR 01017G21KT 6SM -RA SCT035 SCT050 OVC065 23/17 A2992 RMK AO2 RAB24E33 SLP128 P0000 T02330172
VFR 05:57:00 21-11-17
Automated station, no observer
Altimeter:29.91 hg
Temp:23.3°c 73°f
Dew point:16.7°c 61°f
Wind:10 knots, 11.5 mph, 5 m/s, from 30°
Visibility:10.0 statute miles
6000(OVC) Overcast
4200(SCT) Scattered
3300(FEW) A few
PHNG 210557Z AUTO 03010KT 10SM FEW033 SCT042 OVC060 23/17 A2991 RMK AO2 SLP124 T02330167 10261 20228 53017 $
TAF
TAF PHNG 2109/2209 02010KT 9999 SCT030 SCT055 QNH2987INS TEMPO 2109/2112 02010G18KT 9000 -SHRA BKN030 OVC050 FM211500 03007KT 9999 SCT025 BKN055 QNH2989INS TEMPO 2115/2119 03007G14KT 8000 -SHRA BKN025 OVC045 FM212100 04010KT 9999 SCT025 BKN050 QNH2993INS TEMPO 2122/2202 03010G18KT 9000 -SHRA BKN025 OVC055 TEMPO 2204/2209 02010KT 8000 -SHRA OVC025 T21/2114Z T26/2123Z
Forecast at PHNG
09:00 21-11-17 to 15:00 21-11-17
Wind:10 Knots from 20°
Visibility:6.21 statute miles
3000SCT Scattered
5500SCT Scattered
TEMPO 09:00 21-11-17 to 12:00 21-11-17
-SHRA
Wind:10 Knots from 20°
Visibility:5.59 statute miles
3000BKN Broken
5000OVC Overcast
TEMPO 15:00 21-11-17 to 19:00 21-11-17
-SHRA
Wind:7 Knots from 30°
Visibility:4.97 statute miles
2500BKN Broken
4500OVC Overcast
FM 15:00 21-11-17 to 21:00 21-11-17
Wind:7 Knots from 30°
Visibility:6.21 statute miles
2500SCT Scattered
5500BKN Broken
FM 21:00 21-11-17 to 09:00 22-11-17
Wind:10 Knots from 40°
Visibility:6.21 statute miles
2500SCT Scattered
5000BKN Broken
TEMPO 22:00 21-11-17 to 02:00 22-11-17
-SHRA
Wind:10 Knots from 30°
Visibility:5.59 statute miles
2500BKN Broken
5500OVC Overcast
TEMPO 04:00 22-11-17 to 09:00 22-11-17
-SHRA
Wind:10 Knots from 20°
Visibility:4.97 statute miles
2500OVC Overcast